Time;durP1;ratioP1;P1;durP2;ratioP2;P2;SDS_P1;SDS_P2;PMS_P1;PMS_P2;Temp;Humidity;BMP_temperature;BMP_pressure;BME280_temperature;BME280_humidity;BME280_pressure;Samples;Min_cycle;Max_cycle;Signal;HPM_P1;HPM_P2
2023/03/07 00:00:41;;;;;;;0.95;0.95;;;;;;;1.41;100.00;99196.97;5003859;28;20045;-77
2023/03/07 00:03:06;;;;;;;0.00;0.00;;;;;;;1.36;100.00;99195.19;5007079;28;20026;-77
2023/03/07 00:05:32;;;;;;;0.00;0.00;;;;;;;1.31;100.00;99192.56;5003816;28;20686;-77
2023/03/07 00:07:58;;;;;;;0.00;0.00;;;;;;;1.26;100.00;99194.25;4999790;28;20088;-76
2023/03/07 00:10:24;;;;;;;0.00;0.00;;;;;;;1.29;100.00;99192.53;5006999;28;20089;-77
2023/03/07 00:12:50;;;;;;;0.00;0.00;;;;;;;1.28;100.00;99189.91;5002116;28;20074;-77
2023/03/07 00:15:15;;;;;;;0.00;0.00;;;;;;;1.34;100.00;99183.88;5009239;28;20514;-77
2023/03/07 00:17:41;;;;;;;0.00;0.00;;;;;;;1.28;100.00;99179.50;5007893;28;20034;-77
2023/03/07 00:20:10;;;;;;;0.00;0.00;;;;;;;1.33;100.00;99182.16;5004628;28;20412;-77
2023/03/07 00:22:36;;;;;;;0.00;0.00;;;;;;;1.38;100.00;99176.13;5003901;28;20042;-77
2023/03/07 00:25:02;;;;;;;0.00;0.00;;;;;;;1.45;100.00;99180.53;5005243;28;20037;-77
2023/03/07 00:27:31;;;;;;;0.00;0.00;;;;;;;1.51;100.00;99179.72;5002843;28;20110;-77
2023/03/07 00:29:57;;;;;;;0.00;0.00;;;;;;;1.54;100.00;99177.16;5003208;28;20042;-77
2023/03/07 00:32:22;;;;;;;0.00;0.00;;;;;;;1.61;100.00;99178.09;5003888;28;20047;-77
2023/03/07 00:34:48;;;;;;;0.00;0.00;;;;;;;1.66;100.00;99172.06;5004157;28;20045;-77
2023/03/07 00:37:14;;;;;;;0.00;0.00;;;;;;;1.70;100.00;99170.34;5005072;28;20065;-77
2023/03/07 00:39:42;;;;;;;0.00;0.00;;;;;;;1.79;100.00;99167.81;5000103;28;20073;-77
2023/03/07 00:42:08;;;;;;;0.00;0.00;;;;;;;1.85;100.00;99159.19;4998175;28;20026;-77
2023/03/07 00:44:33;;;;;;;0.00;0.00;;;;;;;1.90;100.00;99160.09;4988539;28;20088;-77
2023/03/07 00:46:59;;;;;;;0.00;0.00;;;;;;;1.79;100.00;99151.34;5001509;28;20049;-77
2023/03/07 00:49:25;;;;;;;0.00;0.00;;;;;;;1.70;100.00;99154.72;5003800;28;20034;-77
2023/03/07 00:51:51;;;;;;;0.00;0.00;;;;;;;1.67;100.00;99152.97;5001004;28;20033;-77
2023/03/07 00:54:16;;;;;;;0.00;0.00;;;;;;;1.60;100.00;99145.13;5004812;28;20030;-77
2023/03/07 00:56:42;;;;;;;0.00;0.00;;;;;;;1.56;100.00;99133.81;5002216;28;20038;-77
2023/03/07 00:59:08;;;;;;;0.00;0.00;;;;;;;1.62;100.00;99131.25;5003923;28;20037;-77
2023/03/07 01:01:33;;;;;;;0.00;0.00;;;;;;;1.63;100.00;99132.16;4984846;28;20381;-77
2023/03/07 01:03:59;;;;;;;0.00;0.00;;;;;;;1.63;100.00;99132.16;5004571;28;20061;-77
2023/03/07 01:06:27;;;;;;;0.00;0.00;;;;;;;1.63;100.00;99126.97;5000560;28;20038;-77
2023/03/07 01:08:56;;;;;;;0.00;0.00;;;;;;;1.51;100.00;99125.13;5002277;28;20400;-77
2023/03/07 01:11:21;;;;;;;0.00;0.00;;;;;;;1.42;100.00;99125.06;5002984;28;20579;-77
2023/03/07 01:13:46;;;;;;;0.00;0.00;;;;;;;1.37;100.00;99111.16;5001527;28;20117;-77
2023/03/07 01:16:19;;;;;;;0.00;0.00;;;;;;;1.36;100.00;99114.59;5005385;28;20118;-77
2023/03/07 01:18:48;;;;;;;0.00;0.00;;;;;;;1.30;100.00;99105.88;5001264;28;20041;-77
2023/03/07 01:21:18;;;;;;;0.00;0.00;;;;;;;1.28;100.00;99097.22;4999879;28;20049;-77
2023/03/07 01:23:43;;;;;;;0.00;0.00;;;;;;;1.28;100.00;99096.34;5000012;28;20034;-77
2023/03/07 01:26:14;;;;;;;0.00;0.00;;;;;;;1.29;100.00;99093.75;5003612;28;20030;-77
2023/03/07 01:28:40;;;;;;;0.00;0.00;;;;;;;1.24;100.00;99089.41;4997902;28;20451;-77
2023/03/07 01:31:06;;;;;;;0.00;0.00;;;;;;;1.25;100.00;99084.19;5001904;28;20113;-77
2023/03/07 01:33:32;;;;;;;0.00;0.00;;;;;;;1.31;100.00;99073.84;5000326;28;20065;-76
2023/03/07 01:35:57;;;;;;;0.00;0.00;;;;;;;1.31;100.00;99066.06;5002678;28;20064;-77
2023/03/07 01:38:23;;;;;;;0.00;0.00;;;;;;;1.43;100.00;99064.41;4999637;28;20034;-77
2023/03/07 01:40:49;;;;;;;0.00;0.00;;;;;;;1.48;100.00;99062.69;5000608;28;20061;-77
2023/03/07 01:43:24;;;;;;;0.00;0.00;;;;;;;1.63;100.00;99064.53;5001777;28;20034;-77
2023/03/07 01:46:40;;;;;;;0.00;0.00;;;;;;;1.75;100.00;99056.78;5003424;28;20034;-77
2023/03/07 01:49:12;;;;;;;0.00;0.00;;;;;;;1.77;100.00;99049.88;4968160;28;20134;-77
2023/03/07 01:51:42;;;;;;;0.00;0.00;;;;;;;1.80;100.00;99043.81;5000145;28;20516;-77
2023/03/07 01:54:10;;;;;;;0.00;0.00;;;;;;;1.88;100.00;99042.97;5002844;28;20168;-77
2023/03/07 01:56:38;;;;;;;0.00;0.00;;;;;;;1.94;100.00;99042.19;5000177;28;20088;-77
2023/03/07 01:59:05;;;;;;;0.00;0.00;;;;;;;1.97;100.00;99043.03;5003768;28;20037;-77
2023/03/07 02:01:31;;;;;;;0.00;0.00;;;;;;;1.92;100.00;99023.06;5000773;28;20038;-77
2023/03/07 02:04:05;;;;;;;0.00;0.00;;;;;;;1.93;100.00;99024.81;5002091;28;20030;-77
2023/03/07 02:06:34;;;;;;;0.00;0.00;;;;;;;1.93;100.00;99022.19;5004326;28;20034;-77
2023/03/07 02:09:01;;;;;;;0.00;0.00;;;;;;;2.00;100.00;99021.38;5001690;28;20037;-77
2023/03/07 02:11:27;;;;;;;0.00;0.00;;;;;;;2.01;100.00;99015.28;5001860;28;20029;-77
2023/03/07 02:13:52;;;;;;;0.00;0.00;;;;;;;2.10;100.00;99014.47;5002544;28;20092;-76
2023/03/07 02:16:19;;;;;;;0.00;0.00;;;;;;;2.15;100.00;99013.63;5002534;28;20046;-77
2023/03/07 02:18:48;;;;;;;0.00;0.00;;;;;;;2.15;100.00;99007.56;4999169;28;20481;-76
2023/03/07 02:21:42;;;;;;;0.00;0.00;;;;;;;2.25;100.00;99000.63;4991879;28;20027;-77
2023/03/07 02:24:25;;;;;;;0.00;0.00;;;;;;;2.21;100.00;98999.75;4984264;28;20034;-77
2023/03/07 02:26:52;;;;;;;0.00;0.00;;;;;;;2.22;100.00;98992.81;4983862;28;20038;-77
2023/03/07 02:29:18;;;;;;;0.00;0.00;;;;;;;2.23;100.00;98994.53;5001441;28;20034;-77
2023/03/07 02:31:45;;;;;;;0.00;0.00;;;;;;;2.16;100.00;98989.31;4999262;28;20054;-77
2023/03/07 02:34:17;;;;;;;0.00;0.00;;;;;;;2.17;100.00;98988.47;5002068;28;20057;-77
2023/03/07 02:36:44;;;;;;;0.00;0.00;;;;;;;2.10;100.00;98986.72;4969023;28;20042;-77
2023/03/07 02:39:20;;;;;;;0.00;0.00;;;;;;;2.07;100.00;98981.50;5000412;28;20416;-77
2023/03/07 02:41:47;;;;;;;0.00;0.00;;;;;;;2.03;100.00;98984.94;4999454;28;20092;-77
2023/03/07 02:44:22;;;;;;;0.00;0.00;;;;;;;2.06;100.00;98979.75;5002726;28;20424;-77
2023/03/07 02:46:47;;;;;;;0.00;0.00;;;;;;;2.09;100.00;98969.34;4998705;28;20030;-77
2023/03/07 02:49:13;;;;;;;0.00;0.00;;;;;;;2.10;100.00;98965.91;5002109;28;20026;-77
2023/03/07 02:51:38;;;;;;;0.00;0.00;;;;;;;2.12;100.00;98966.78;4999590;28;20030;-77
2023/03/07 02:54:04;;;;;;;0.00;0.00;;;;;;;2.12;100.00;98965.88;5002151;28;20029;-76
2023/03/07 02:56:30;;;;;;;0.00;0.00;;;;;;;2.12;100.00;98953.75;4998859;28;20431;-77
2023/03/07 02:58:56;;;;;;;0.00;0.00;;;;;;;2.12;100.00;98951.16;5002820;28;20041;-76
2023/03/07 03:01:22;;;;;;;0.00;0.00;;;;;;;2.11;100.00;98946.81;5000471;28;20455;-76
2023/03/07 03:03:47;;;;;;;0.00;0.00;;;;;;;2.16;100.00;98939.00;5001581;28;20030;-77
2023/03/07 03:06:13;;;;;;;0.00;0.00;;;;;;;2.19;100.00;98942.47;4999162;28;20039;-76
2023/03/07 03:08:38;;;;;;;0.00;0.00;;;;;;;2.20;100.00;98930.31;5001252;28;20049;-76
2023/03/07 03:11:04;;;;;;;0.00;0.00;;;;;;;2.13;100.00;98932.06;5000382;28;20037;-76
2023/03/07 03:13:30;;;;;;;0.00;0.00;;;;;;;2.14;100.00;98928.59;5000876;28;20578;-77
2023/03/07 03:15:57;;;;;;;0.00;0.00;;;;;;;2.12;100.00;98927.75;5002048;28;20054;-76
2023/03/07 03:18:23;;;;;;;0.00;0.00;;;;;;;2.09;100.00;98922.50;4988879;28;20404;-76
2023/03/07 03:20:50;;;;;;;0.00;0.00;;;;;;;2.11;100.00;98915.56;4997500;28;20543;-77
2023/03/07 03:23:15;;;;;;;0.00;0.00;;;;;;;2.05;100.00;98915.56;4998628;28;20034;-76
2023/03/07 03:25:40;;;;;;;0.00;0.00;;;;;;;2.05;100.00;98907.75;4999063;28;20041;-76
2023/03/07 03:28:07;;;;;;;0.00;0.00;;;;;;;2.06;100.00;98912.09;5000515;28;20033;-76
2023/03/07 03:30:34;;;;;;;0.00;0.00;;;;;;;2.09;100.00;98901.69;5003253;28;20042;-76
2023/03/07 03:33:02;;;;;;;0.00;0.00;;;;;;;2.11;100.00;98905.16;5003524;28;20396;-76
2023/03/07 03:35:27;;;;;;;0.00;0.00;;;;;;;2.10;100.00;98898.22;5001444;28;20034;-76
2023/03/07 03:37:55;;;;;;;0.00;0.00;;;;;;;2.09;100.00;98893.88;5005264;28;20081;-77
2023/03/07 03:40:20;;;;;;;0.00;0.00;;;;;;;2.07;100.00;98890.44;5003082;28;20125;-77
2023/03/07 03:42:45;;;;;;;0.00;0.00;;;;;;;2.10;100.00;98892.16;5005236;28;20651;-77
2023/03/07 03:45:16;;;;;;;0.00;0.00;;;;;;;2.12;100.00;98883.50;5004977;28;20500;-77
2023/03/07 03:47:41;;;;;;;0.00;0.00;;;;;;;2.11;100.00;98880.88;5012398;28;20031;-76
2023/03/07 03:50:08;;;;;;;0.00;0.00;;;;;;;2.09;100.00;98877.41;5004624;28;20030;-77
2023/03/07 03:52:36;;;;;;;0.00;0.00;;;;;;;2.09;100.00;98873.06;5001996;28;20033;-77
2023/03/07 03:55:03;;;;;;;0.00;0.00;;;;;;;2.06;100.00;98867.00;5004226;28;20029;-77
2023/03/07 03:57:28;;;;;;;0.00;0.00;;;;;;;2.06;100.00;98859.19;5003954;28;20607;-76
2023/03/07 03:59:54;;;;;;;0.00;0.00;;;;;;;2.03;100.00;98853.97;5003814;28;20045;-76
2023/03/07 04:02:21;;;;;;;0.00;0.00;;;;;;;2.02;100.00;98858.31;5004566;28;20500;-76
2023/03/07 04:04:46;;;;;;;0.00;0.00;;;;;;;2.03;100.00;98849.63;5001128;28;20038;-77
2023/03/07 04:07:11;;;;;;;0.00;0.00;;;;;;;2.04;100.00;98851.34;5001715;28;20092;-76
2023/03/07 04:09:36;;;;;;;0.00;0.00;;;;;;;1.99;100.00;98847.88;5002973;28;20038;-76
2023/03/07 04:12:02;;;;;;;0.00;0.00;;;;;;;2.04;100.00;98837.50;5002968;28;20034;-76
2023/03/07 04:14:28;;;;;;;0.00;0.00;;;;;;;2.05;100.00;98840.09;4998863;28;20458;-76
2023/03/07 04:16:53;;;;;;;0.00;0.00;;;;;;;2.05;100.00;98831.44;5009888;28;20026;-76
2023/03/07 04:19:18;;;;;;;0.00;0.00;;;;;;;2.03;100.00;98826.22;5003751;28;20073;-77
2023/03/07 04:21:44;;;;;;;0.00;0.00;;;;;;;2.03;100.00;98812.34;4993990;28;20041;-76
2023/03/07 04:24:10;;;;;;;0.00;0.00;;;;;;;2.00;100.00;98810.59;5003970;28;20124;-77
2023/03/07 04:26:35;;;;;;;0.00;0.00;;;;;;;2.01;100.00;98816.66;5004453;28;20076;-75
2023/03/07 04:29:03;;;;;;;0.00;0.00;;;;;;;2.02;100.00;98802.78;5004517;28;20029;-75
2023/03/07 04:31:43;;;;;;;0.00;0.00;;;;;;;2.04;100.00;98803.66;4987484;28;20511;-75
2023/03/07 04:34:09;;;;;;;0.00;0.00;;;;;;;2.06;100.00;98800.19;5000889;28;20725;-75
2023/03/07 04:36:34;;;;;;;0.00;0.00;;;;;;;2.11;100.00;98801.06;5006646;28;20038;-75
2023/03/07 04:39:00;;;;;;;0.00;0.00;;;;;;;2.16;100.00;98806.28;5002720;28;20038;-75
2023/03/07 04:41:25;;;;;;;0.00;0.00;;;;;;;2.22;100.00;98797.59;5002260;28;20030;-75
2023/03/07 04:43:55;;;;;;;0.00;0.00;;;;;;;2.28;100.00;98793.25;5002791;28;20045;-75
2023/03/07 04:46:22;;;;;;;0.00;0.00;;;;;;;2.32;100.00;98789.78;5004009;28;20042;-75
2023/03/07 04:48:48;;;;;;;0.00;0.00;;;;;;;2.42;100.00;98786.28;5002653;28;20039;-75
2023/03/07 04:51:14;;;;;;;0.00;0.00;;;;;;;2.51;100.00;98787.16;5000488;28;20038;-75
2023/03/07 04:53:40;;;;;;;0.00;0.00;;;;;;;2.60;100.00;98785.41;5000747;28;20049;-77
2023/03/07 04:56:07;;;;;;;0.00;0.00;;;;;;;2.68;100.00;98782.78;5003435;28;20030;-76
2023/03/07 04:58:34;;;;;;;0.00;0.00;;;;;;;2.74;100.00;98779.28;5010813;28;20034;-76
2023/03/07 05:01:01;;;;;;;0.00;0.00;;;;;;;2.73;100.00;98781.03;5001969;28;20034;-76
2023/03/07 05:03:27;;;;;;;0.00;0.00;;;;;;;2.86;100.00;98776.66;5000649;28;20042;-77
2023/03/07 05:05:54;;;;;;;0.00;0.00;;;;;;;2.87;100.00;98765.34;5003566;28;20072;-76
2023/03/07 05:08:21;;;;;;;0.00;0.00;;;;;;;2.93;100.00;98767.06;5001928;28;20041;-77
2023/03/07 05:10:46;;;;;;;0.00;0.00;;;;;;;2.90;100.00;98760.13;5000566;28;20037;-77
2023/03/07 05:13:12;;;;;;;0.00;0.00;;;;;;;3.01;100.00;98765.28;5003018;28;20073;-75
2023/03/07 05:15:37;;;;;;;0.00;0.00;;;;;;;3.02;100.00;98759.22;5001861;28;20030;-77
2023/03/07 05:18:03;;;;;;;0.00;0.00;;;;;;;3.11;100.00;98755.69;4998373;28;20405;-77
2023/03/07 05:20:29;;;;;;;0.00;0.00;;;;;;;3.09;100.00;98760.91;4998478;28;20038;-77
2023/03/07 05:22:57;;;;;;;21.65;13.25;;;;;;;3.15;98.67;98757.44;4993369;28;20493;-76
2023/03/07 05:25:23;;;;;;;1028.55;526.63;;;;;;;3.11;98.19;98755.69;4998478;28;20030;-77
2023/03/07 05:27:49;;;;;;;0.00;0.00;;;;;;;3.20;99.70;98756.53;4994122;28;20032;-76
2023/03/07 05:30:15;;;;;;;0.00;0.00;;;;;;;3.23;98.83;98750.44;4995125;28;20077;-77
2023/03/07 05:32:41;;;;;;;0.00;0.00;;;;;;;3.18;98.58;98749.59;5002622;28;20092;-77
2023/03/07 05:35:10;;;;;;;0.00;0.00;;;;;;;3.21;98.33;98746.97;5000799;28;20030;-77
2023/03/07 05:37:35;;;;;;;0.00;0.00;;;;;;;3.21;98.29;98741.75;5001364;28;20037;-77
2023/03/07 05:40:04;;;;;;;0.00;0.00;;;;;;;3.20;98.56;98746.09;4993954;28;20022;-77
2023/03/07 05:42:29;;;;;;;0.00;0.00;;;;;;;3.25;98.65;98738.25;4993152;28;20232;-77
2023/03/07 05:44:55;;;;;;;0.00;0.00;;;;;;;3.27;97.70;98744.31;5004940;28;20125;-77
2023/03/07 05:47:20;;;;;;;0.00;0.00;;;;;;;3.28;98.69;98746.06;4994667;28;20038;-77
2023/03/07 05:49:45;;;;;;;0.00;0.00;;;;;;;3.27;97.69;98736.50;4994956;28;20029;-77
2023/03/07 05:52:12;;;;;;;0.00;0.00;;;;;;;3.32;97.59;98729.50;4996690;28;20381;-77
2023/03/07 05:54:37;;;;;;;0.00;0.00;;;;;;;3.35;97.62;98729.50;4999171;28;20037;-77
2023/03/07 05:57:03;;;;;;;0.00;0.00;;;;;;;3.36;96.75;98728.63;4986509;28;20084;-77
2023/03/07 05:59:28;;;;;;;0.00;0.00;;;;;;;3.39;96.45;98728.59;4995514;28;20065;-77
2023/03/07 06:01:53;;;;;;;0.00;0.00;;;;;;;3.35;96.52;98728.63;5002619;28;20115;-77
2023/03/07 06:04:19;;;;;;;0.00;0.00;;;;;;;3.39;96.95;98735.56;4995151;28;20054;-77
2023/03/07 06:06:44;;;;;;;0.00;0.00;;;;;;;3.39;96.42;98725.13;4999661;28;20029;-77
2023/03/07 06:09:09;;;;;;;0.00;0.00;;;;;;;3.45;96.81;98733.78;4997179;28;20042;-77
2023/03/07 06:11:35;;;;;;;0.00;0.00;;;;;;;3.39;96.49;98740.78;5000564;28;20031;-77
2023/03/07 06:14:00;;;;;;;0.00;0.00;;;;;;;3.44;96.63;98729.44;5000931;28;20038;-77
2023/03/07 06:16:27;;;;;;;0.00;0.00;;;;;;;3.41;97.16;98734.69;5001533;28;20029;-76
2023/03/07 06:18:53;;;;;;;0.00;0.00;;;;;;;3.40;96.42;98740.75;4996916;28;20516;-76
2023/03/07 06:21:18;;;;;;;0.00;0.00;;;;;;;3.43;97.14;98740.75;4995330;28;20034;-77
2023/03/07 06:23:45;;;;;;;0.00;0.00;;;;;;;3.49;97.39;98745.94;4997230;28;20030;-77
2023/03/07 06:26:14;;;;;;;112.03;101.32;;;;;;;3.48;97.64;98746.81;4985438;28;20038;-77
2023/03/07 06:28:42;;;;;;;9.40;8.57;;;;;;;3.31;99.99;98748.66;5000847;28;20141;-77
2023/03/07 06:31:15;;;;;;;5.50;4.50;;;;;;;3.33;100.00;98746.00;5001200;28;20112;-76
2023/03/07 06:33:41;;;;;;;247.43;225.93;;;;;;;3.26;100.00;98751.28;5007695;28;20373;-76
2023/03/07 06:36:08;;;;;;;7.53;6.90;;;;;;;3.26;100.00;98750.41;5000097;28;20034;-76
2023/03/07 06:38:34;;;;;;;11.25;8.65;;;;;;;3.20;100.00;98748.72;4992127;28;20034;-77
2023/03/07 06:41:01;;;;;;;10.38;8.30;;;;;;;3.25;100.00;98743.47;5009505;28;20567;-77
2023/03/07 06:43:26;;;;;;;7.55;5.95;;;;;;;3.24;100.00;98749.56;4998910;28;20117;-77
2023/03/07 06:45:52;;;;;;;9.90;8.77;;;;;;;3.16;100.00;98738.28;5005520;28;20488;-77
2023/03/07 06:48:18;;;;;;;8.85;6.68;;;;;;;3.13;100.00;98752.22;4994538;28;20496;-76
2023/03/07 06:50:44;;;;;;;10.02;7.55;;;;;;;3.26;100.00;98746.06;4998830;28;20037;-76
2023/03/07 06:53:09;;;;;;;8.63;6.95;;;;;;;3.24;100.00;98742.59;4983602;28;20121;-76
2023/03/07 06:55:35;;;;;;;8.65;7.05;;;;;;;3.26;100.00;98746.06;5000180;28;20041;-76
2023/03/07 06:58:00;;;;;;;4.97;4.55;;;;;;;3.28;100.00;98748.66;4999950;28;20121;-77
2023/03/07 07:00:26;;;;;;;7.65;7.20;;;;;;;3.30;100.00;98741.69;4989895;28;20038;-77
2023/03/07 07:02:51;;;;;;;5.10;4.80;;;;;;;3.28;100.00;98744.31;5002553;28;20105;-77
2023/03/07 07:05:17;;;;;;;7.60;7.20;;;;;;;3.41;100.00;98739.91;5004782;28;20491;-77
2023/03/07 07:07:44;;;;;;;0.00;0.00;;;;;;;3.39;100.00;98738.19;5002859;28;20029;-77
2023/03/07 07:10:10;;;;;;;0.10;0.10;;;;;;;3.42;100.00;98731.19;5003847;28;20034;-77
2023/03/07 07:12:35;;;;;;;50.28;47.45;;;;;;;3.49;100.00;98738.09;5003820;28;20109;-77
2023/03/07 07:15:01;;;;;;;0.00;0.00;;;;;;;3.60;100.00;98731.97;5006009;28;20034;-77
2023/03/07 07:17:28;;;;;;;0.00;0.00;;;;;;;3.69;100.00;98727.56;4989638;28;20072;-77
2023/03/07 07:19:53;;;;;;;0.00;0.00;;;;;;;3.76;100.00;98728.34;5005567;28;20045;-77
2023/03/07 07:22:19;;;;;;;0.00;0.00;;;;;;;3.85;100.00;98733.50;5000613;28;20038;-77
2023/03/07 07:24:44;;;;;;;0.00;0.00;;;;;;;3.93;100.00;98730.84;5005988;28;20037;-77
2023/03/07 07:27:10;;;;;;;0.00;0.00;;;;;;;3.89;100.00;98722.16;5004921;28;20081;-77
2023/03/07 07:29:35;;;;;;;0.00;0.00;;;;;;;3.95;100.00;98734.28;5002661;28;20026;-77
2023/03/07 07:32:00;;;;;;;0.00;0.00;;;;;;;4.03;100.00;98729.84;5002179;28;20037;-78
2023/03/07 07:34:26;;;;;;;0.00;0.00;;;;;;;4.04;100.00;98723.78;5004857;28;20030;-77
2023/03/07 07:36:52;;;;;;;0.00;0.00;;;;;;;4.02;100.00;98732.50;5002603;28;20049;-77
2023/03/07 07:39:18;;;;;;;0.00;0.00;;;;;;;4.17;100.00;98737.59;5001918;28;20403;-77
2023/03/07 07:41:46;;;;;;;0.00;0.00;;;;;;;4.19;100.00;98735.81;4995479;28;20378;-77
2023/03/07 07:44:12;;;;;;;0.00;0.00;;;;;;;4.24;100.00;98733.16;4985664;28;20040;-77
2023/03/07 07:46:50;;;;;;;0.00;0.00;;;;;;;4.25;100.00;98733.16;5001525;28;20432;-77
2023/03/07 07:49:15;;;;;;;0.00;0.00;;;;;;;4.30;100.00;98723.53;4998717;28;20026;-78
2023/03/07 07:51:41;;;;;;;0.00;0.00;;;;;;;4.45;100.00;98730.34;5004191;28;20092;-77
2023/03/07 07:54:08;;;;;;;0.00;0.00;;;;;;;4.55;100.00;98725.88;5003833;28;20433;-78
2023/03/07 07:56:33;;;;;;;0.00;0.00;;;;;;;4.50;99.70;98736.38;5002988;28;20038;-77
2023/03/07 07:58:59;;;;;;;0.00;0.00;;;;;;;4.54;99.45;98721.56;5004589;28;20042;-77
2023/03/07 08:01:24;;;;;;;0.00;0.00;;;;;;;4.56;100.00;98727.63;4998425;28;20041;-77
2023/03/07 08:03:50;;;;;;;0.00;0.00;;;;;;;4.60;100.00;98719.72;5000645;28;20093;-77
2023/03/07 08:06:22;;;;;;;0.00;0.00;;;;;;;4.58;100.00;98728.47;5003871;28;20041;-77
2023/03/07 08:08:48;;;;;;;0.00;0.00;;;;;;;4.60;99.77;98735.41;4996934;28;20443;-77
2023/03/07 08:11:14;;;;;;;0.00;0.00;;;;;;;4.49;99.97;98736.41;5002444;28;20038;-78
2023/03/07 08:13:39;;;;;;;0.00;0.00;;;;;;;4.55;100.00;98712.81;4998604;28;20132;-77
2023/03/07 08:16:14;;;;;;;0.00;0.00;;;;;;;4.64;99.98;98728.41;5003433;28;20113;-77
2023/03/07 08:18:40;;;;;;;0.00;0.00;;;;;;;4.80;100.00;98739.56;5002732;28;20092;-78
2023/03/07 08:21:07;;;;;;;0.00;0.00;;;;;;;4.70;100.00;98724.88;5005064;28;20041;-77
2023/03/07 08:23:33;;;;;;;0.00;0.00;;;;;;;4.63;100.00;98723.19;5005451;28;20105;-77
2023/03/07 08:26:03;;;;;;;0.00;0.00;;;;;;;4.64;100.00;98715.34;5003937;28;20034;-76
2023/03/07 08:28:29;;;;;;;0.00;0.00;;;;;;;4.74;100.00;98719.59;5002387;28;20567;-77
2023/03/07 08:30:54;;;;;;;0.00;0.00;;;;;;;4.69;100.00;98720.50;4998117;28;20105;-77
2023/03/07 08:33:19;;;;;;;0.00;0.00;;;;;;;4.74;100.00;98714.38;5003495;28;20488;-78
2023/03/07 08:35:45;;;;;;;0.00;0.00;;;;;;;4.81;100.00;98707.31;5000683;28;20034;-77
2023/03/07 08:38:10;;;;;;;0.00;0.00;;;;;;;4.82;100.00;98699.44;5002998;28;20113;-77
2023/03/07 08:40:35;;;;;;;0.00;0.00;;;;;;;4.91;100.00;98703.69;5001354;28;20125;-77
2023/03/07 08:43:01;;;;;;;0.05;0.05;;;;;;;5.03;100.00;98689.59;4999836;28;20196;-76
2023/03/07 08:45:26;;;;;;;0.00;0.00;;;;;;;5.14;99.85;98706.00;5006781;28;20077;-77
2023/03/07 08:47:53;;;;;;;0.00;0.00;;;;;;;5.31;98.95;98684.84;5002313;28;20037;-77
2023/03/07 08:50:21;;;;;;;0.00;0.00;;;;;;;5.16;98.03;98701.63;5000963;28;20508;-77
2023/03/07 08:52:46;;;;;;;0.00;0.00;;;;;;;5.34;97.84;98704.84;4996727;28;20498;-77
2023/03/07 08:55:11;;;;;;;0.00;0.00;;;;;;;5.37;96.64;98691.72;5000547;28;20069;-77
2023/03/07 08:57:36;;;;;;;0.00;0.00;;;;;;;5.46;97.14;98697.69;4999960;28;20096;-77
2023/03/07 09:00:05;;;;;;;0.00;0.00;;;;;;;5.44;95.86;98690.75;5001140;28;20088;-77
2023/03/07 09:02:30;;;;;;;0.00;0.00;;;;;;;5.57;95.38;98691.44;5001003;28;20038;-77
2023/03/07 09:04:56;;;;;;;0.00;0.00;;;;;;;5.82;94.30;98697.16;5004474;28;20053;-77
2023/03/07 09:07:21;;;;;;;0.00;0.00;;;;;;;5.93;92.16;98693.50;5002481;28;20042;-77
2023/03/07 09:09:46;;;;;;;0.00;0.00;;;;;;;5.97;92.28;98691.69;5003900;28;20030;-77
2023/03/07 09:12:12;;;;;;;0.00;0.00;;;;;;;5.98;90.90;98692.56;5002282;28;20408;-76
2023/03/07 09:14:37;;;;;;;0.00;0.00;;;;;;;5.98;91.18;98690.81;5004051;28;20046;-77
2023/03/07 09:17:03;;;;;;;0.00;0.00;;;;;;;5.87;92.15;98695.34;4998448;28;20038;-76
2023/03/07 09:19:28;;;;;;;0.00;0.00;;;;;;;5.83;92.50;98689.28;5003322;28;20492;-77
2023/03/07 09:21:54;;;;;;;0.00;0.00;;;;;;;5.83;92.27;98688.41;5002273;28;20035;-77
2023/03/07 09:24:19;;;;;;;0.00;0.00;;;;;;;5.57;91.87;98675.75;5003156;28;20554;-77
2023/03/07 09:26:45;;;;;;;0.00;0.00;;;;;;;5.49;94.84;98689.81;5001994;28;20038;-76
2023/03/07 09:29:11;;;;;;;0.00;0.00;;;;;;;5.62;95.99;98680.00;5002431;28;20420;-77
2023/03/07 09:31:36;;;;;;;0.30;0.30;;;;;;;5.61;94.52;98680.91;5002818;28;20038;-77
2023/03/07 09:34:01;;;;;;;0.20;0.20;;;;;;;5.70;94.30;98677.28;4997382;28;20065;-77
2023/03/07 09:36:27;;;;;;;0.20;0.20;;;;;;;5.75;95.18;98674.59;4994857;28;20045;-77
2023/03/07 09:38:52;;;;;;;0.20;0.20;;;;;;;5.80;95.01;98668.38;4995486;28;20068;-77
2023/03/07 09:41:17;;;;;;;0.20;0.20;;;;;;;5.82;93.81;98671.84;5002431;28;20038;-77
2023/03/07 09:43:50;;;;;;;0.10;0.10;;;;;;;5.86;94.42;98662.19;5002108;28;20571;-77
2023/03/07 09:47:03;;;;;;;0.20;0.20;;;;;;;5.84;94.27;98658.72;4999702;28;20205;-77
2023/03/07 09:49:45;;;;;;;0.10;0.10;;;;;;;5.76;94.21;98668.47;5000075;28;20418;-76
2023/03/07 09:52:15;;;;;;;0.20;0.20;;;;;;;5.79;93.66;98660.53;4998216;28;20048;-77
2023/03/07 09:54:45;;;;;;;0.10;0.10;;;;;;;5.86;92.82;98654.31;5003526;28;20042;-77
2023/03/07 09:57:19;;;;;;;0.20;0.20;;;;;;;5.92;92.26;98657.72;5003810;28;20082;-77
2023/03/07 09:59:52;;;;;;;0.10;0.10;;;;;;;6.05;92.46;98642.69;5004407;28;20036;-76
2023/03/07 10:02:31;;;;;;;0.20;0.20;;;;;;;6.14;91.19;98639.88;4991724;28;20034;-77
2023/03/07 10:05:35;;;;;;;0.10;0.10;;;;;;;6.25;91.79;98646.69;4998746;28;20050;-76
2023/03/07 10:08:01;;;;;;;0.10;0.10;;;;;;;6.24;91.43;98631.88;5001642;28;20496;-76
2023/03/07 10:10:38;;;;;;;0.10;0.10;;;;;;;6.14;91.19;98637.25;5001024;28;20037;-77
2023/03/07 10:13:16;;;;;;;0.10;0.10;;;;;;;6.11;92.24;98642.56;4997236;28;20026;-77
2023/03/07 10:15:49;;;;;;;0.00;0.00;;;;;;;6.02;93.19;98641.84;5006612;28;20045;-77
2023/03/07 10:18:35;;;;;;;0.00;0.00;;;;;;;5.96;92.97;98641.97;4997016;28;20037;-77
2023/03/07 10:21:19;;;;;;;0.00;0.00;;;;;;;5.85;93.94;98632.53;5003011;28;20472;-77
2023/03/07 10:24:06;;;;;;;0.10;0.10;;;;;;;5.83;95.27;98630.81;4999620;28;20042;-77
2023/03/07 10:26:39;;;;;;;0.10;0.10;;;;;;;5.86;93.09;98630.75;4997979;28;20048;-77
2023/03/07 10:29:23;;;;;;;;;;;;;;;5.84;94.43;98624.69;5000142;28;20031;-76
2023/03/07 10:31:54;;;;;;;0.10;0.10;;;;;;;5.98;93.80;98617.50;4996936;28;19968;-77
2023/03/07 10:34:28;;;;;;;0.10;0.10;;;;;;;6.05;93.47;98621.75;5002314;28;20042;-77
2023/03/07 10:36:59;;;;;;;0.10;0.10;;;;;;;6.03;92.21;98618.28;5004850;28;20085;-76
2023/03/07 10:39:40;;;;;;;0.00;0.00;;;;;;;6.14;91.18;98616.31;4995610;28;20071;-77
2023/03/07 10:42:09;;;;;;;0.10;0.10;;;;;;;6.06;91.40;98609.50;5003191;28;20034;-77
2023/03/07 10:44:35;;;;;;;0.10;0.10;;;;;;;6.06;90.83;98612.97;5002241;28;20037;-77
2023/03/07 10:47:00;;;;;;;0.10;0.10;;;;;;;6.12;91.82;98612.84;5001182;28;20085;-77
2023/03/07 10:49:59;;;;;;;0.10;0.10;;;;;;;6.23;91.07;98615.25;4998005;28;20556;-77
2023/03/07 10:53:02;;;;;;;0.08;0.08;;;;;;;6.33;90.28;98613.34;5000687;28;20054;-77
2023/03/07 10:55:42;;;;;;;0.10;0.10;;;;;;;6.29;89.50;98599.44;4959051;28;20035;-77
2023/03/07 10:58:20;;;;;;;0.10;0.10;;;;;;;6.43;90.49;98600.91;5019023;22;20060;-78
2023/03/07 11:01:06;;;;;;;0.10;0.10;;;;;;;6.48;89.94;98593.84;5006902;28;20042;-78
2023/03/07 11:03:39;;;;;;;0.10;0.10;;;;;;;6.32;88.34;98601.13;5013029;28;20061;-80
2023/03/07 11:06:05;;;;;;;0.10;0.10;;;;;;;6.32;88.65;98594.13;5013410;28;20025;-80
2023/03/07 11:08:35;;;;;;;0.10;0.10;;;;;;;6.41;88.19;98576.50;5002981;28;20049;-79
2023/03/07 11:11:03;;;;;;;0.10;0.10;;;;;;;6.33;87.51;98576.66;5001877;28;20038;-79
2023/03/07 11:13:30;;;;;;;0.10;0.10;;;;;;;6.34;88.85;98576.63;5004178;28;20034;-79
2023/03/07 11:16:15;;;;;;;0.10;0.10;;;;;;;6.55;88.37;98572.72;5006850;28;20045;-79
2023/03/07 11:18:42;;;;;;;0.10;0.10;;;;;;;6.63;87.90;98567.31;5000639;28;20134;-79
2023/03/07 11:21:26;;;;;;;0.10;0.10;;;;;;;6.92;87.66;98568.41;5001980;28;20042;-78
2023/03/07 11:24:15;;;;;;;0.20;0.20;;;;;;;7.02;86.30;98557.69;5005313;28;20041;-79
2023/03/07 11:26:41;;;;;;;0.20;0.20;;;;;;;6.96;85.24;98559.56;4999939;28;20137;-79
2023/03/07 11:29:10;;;;;;;0.10;0.10;;;;;;;6.98;84.61;98555.16;5005385;28;20562;-79
2023/03/07 11:32:16;;;;;;;0.10;0.10;;;;;;;7.03;86.53;98550.66;5002615;28;20046;-78
2023/03/07 11:34:58;;;;;;;0.10;0.10;;;;;;;6.99;84.11;98552.47;4992627;28;20038;-78
2023/03/07 11:37:36;;;;;;;0.10;0.10;;;;;;;7.13;84.99;98541.69;4997858;28;20507;-78
2023/03/07 11:40:27;;;;;;;0.10;0.10;;;;;;;7.17;84.78;98542.47;4996765;28;20074;-78
2023/03/07 11:42:59;;;;;;;0.20;0.20;;;;;;;7.21;84.15;98536.25;4995609;28;20049;-79